createdAt,value
2018-05-26T00:01:08.974Z,70.06
2018-05-26T00:03:37.794Z,69.98
2018-05-26T00:06:06.630Z,70.46
2018-05-26T00:08:35.478Z,70.73
2018-05-26T00:11:04.305Z,70.22
2018-05-26T00:13:33.130Z,70.71
2018-05-26T00:16:01.955Z,71.27
2018-05-26T00:18:30.815Z,71.44
2018-05-26T00:20:59.648Z,71.52
2018-05-26T00:23:28.496Z,71.72
2018-05-26T00:25:57.376Z,70.83
2018-05-26T00:28:26.217Z,70.65
2018-05-26T00:30:55.065Z,71.40
2018-05-26T00:33:23.915Z,70.17
2018-05-26T00:35:52.833Z,69.87
2018-05-26T00:38:21.649Z,70.72
2018-05-26T00:40:50.548Z,70.90
2018-05-26T00:43:19.390Z,71.00
2018-05-26T00:45:48.305Z,70.73
2018-05-26T00:48:17.196Z,70.71
2018-05-26T00:50:46.023Z,70.70
2018-05-26T00:53:14.893Z,70.74
2018-05-26T00:55:43.750Z,70.77
2018-05-26T00:58:12.605Z,71.16
2018-05-26T01:00:41.440Z,70.85
2018-05-26T01:03:10.283Z,70.83
2018-05-26T01:05:39.123Z,70.32
2018-05-26T01:08:08.006Z,71.15
2018-05-26T01:10:36.817Z,71.19
2018-05-26T01:13:05.691Z,71.17
2018-05-26T01:15:34.529Z,71.06
2018-05-26T01:18:03.391Z,71.06
2018-05-26T01:20:34.092Z,71.15
2018-05-26T01:23:02.926Z,71.08
2018-05-26T01:25:31.780Z,71.42
2018-05-26T01:28:00.605Z,71.51
2018-05-26T01:30:29.450Z,71.50
2018-05-26T01:32:58.267Z,71.56
2018-05-26T01:35:27.146Z,71.65
2018-05-26T01:37:55.977Z,71.54
2018-05-26T01:40:24.831Z,70.49
2018-05-26T01:42:53.667Z,71.31
2018-05-26T01:45:22.493Z,71.22
2018-05-26T01:47:51.326Z,71.10
2018-05-26T01:50:20.223Z,70.20
2018-05-26T01:52:49.102Z,71.02
2018-05-26T01:55:17.958Z,70.88
2018-05-26T01:57:46.774Z,70.96
2018-05-26T02:00:15.607Z,71.06
2018-05-26T02:02:44.453Z,71.05
2018-05-26T02:05:13.329Z,70.97
2018-05-26T02:07:42.270Z,71.03
2018-05-26T02:10:11.108Z,71.09
2018-05-26T02:12:39.970Z,71.21
2018-05-26T02:15:08.837Z,71.37
2018-05-26T02:17:37.667Z,71.37
2018-05-26T02:20:06.512Z,71.48
2018-05-26T02:22:35.383Z,71.55
2018-05-26T02:25:04.320Z,71.69
2018-05-26T02:27:33.096Z,71.54
2018-05-26T02:30:01.929Z,71.45
2018-05-26T02:32:30.769Z,71.45
2018-05-26T02:34:59.631Z,71.37
2018-05-26T02:37:28.512Z,71.35
2018-05-26T02:39:57.386Z,71.41
2018-05-26T02:42:26.249Z,71.22
2018-05-26T02:44:55.085Z,70.47
2018-05-26T02:47:23.947Z,71.08
2018-05-26T02:49:52.781Z,71.03
2018-05-26T02:52:21.701Z,69.81
2018-05-26T02:54:50.546Z,70.50
2018-05-26T02:57:19.395Z,70.50
2018-05-26T02:59:48.241Z,70.62
2018-05-26T03:02:17.092Z,70.43
2018-05-26T03:05:04.135Z,70.32
2018-05-26T03:07:50.433Z,70.29
2018-05-26T03:10:36.909Z,70.16
2018-05-26T03:13:23.658Z,70.32
2018-05-26T03:15:52.492Z,69.87
2018-05-26T03:18:21.332Z,70.44
2018-05-26T03:20:50.194Z,70.44
2018-05-26T03:23:19.016Z,70.52
2018-05-26T03:25:47.875Z,70.78
2018-05-26T03:28:16.709Z,70.82
2018-05-26T03:30:45.584Z,71.03
2018-05-26T03:33:14.412Z,70.96
2018-05-26T03:35:43.282Z,71.12
2018-05-26T03:38:12.103Z,71.29
2018-05-26T03:40:40.955Z,71.07
2018-05-26T03:43:09.802Z,71.17
2018-05-26T03:45:38.640Z,70.85
2018-05-26T03:48:07.453Z,70.91
2018-05-26T03:50:36.324Z,70.80
2018-05-26T03:53:05.204Z,70.60
2018-05-26T03:56:14.775Z,70.80
2018-05-26T03:59:21.326Z,70.90
2018-05-26T04:01:50.179Z,70.84
2018-05-26T04:04:19.023Z,70.93
2018-05-26T04:06:47.905Z,70.92
2018-05-26T04:09:16.728Z,70.92
2018-05-26T04:11:45.575Z,70.76
2018-05-26T04:14:14.421Z,69.72
2018-05-26T04:16:43.253Z,70.52
2018-05-26T04:19:12.099Z,70.49
2018-05-26T04:21:40.950Z,70.21
2018-05-26T04:24:09.776Z,70.12
2018-05-26T04:26:38.620Z,70.10
2018-05-26T04:29:07.468Z,69.30
2018-05-26T04:31:36.286Z,69.82
2018-05-26T04:34:05.150Z,69.98
2018-05-26T04:36:34.008Z,70.01
2018-05-26T04:39:02.879Z,69.75
2018-05-26T04:41:31.721Z,69.99
2018-05-26T04:44:00.526Z,69.74
2018-05-26T04:46:29.409Z,70.11
2018-05-26T04:48:58.257Z,70.20
2018-05-26T04:51:27.077Z,70.48
2018-05-26T04:53:55.897Z,69.26
2018-05-26T04:56:24.771Z,68.54
2018-05-26T04:58:53.625Z,69.38
2018-05-26T05:01:22.461Z,69.24
2018-05-26T05:03:51.290Z,67.94
2018-05-26T05:06:20.151Z,68.13
2018-05-26T05:08:49.000Z,68.18
2018-05-26T05:11:17.892Z,67.86
2018-05-26T05:13:46.716Z,67.56
2018-05-26T05:16:15.571Z,67.83
2018-05-26T05:18:44.416Z,67.82
2018-05-26T05:21:13.231Z,67.59
2018-05-26T05:23:42.123Z,68.20
2018-05-26T05:26:10.949Z,67.54
2018-05-26T05:28:39.849Z,67.94
2018-05-26T05:31:08.673Z,67.57
2018-05-26T05:33:37.514Z,67.35
2018-05-26T05:36:06.408Z,67.06
2018-05-26T05:38:35.267Z,66.72
2018-05-26T05:41:04.116Z,66.45
2018-05-26T05:43:32.954Z,66.06
2018-05-26T05:46:01.810Z,65.81
2018-05-26T05:48:30.683Z,65.49
2018-05-26T05:50:59.503Z,65.20
2018-05-26T05:53:31.922Z,64.92
2018-05-26T05:56:00.751Z,64.31
2018-05-26T05:58:29.616Z,63.09
2018-05-26T06:00:58.456Z,62.08
2018-05-26T06:03:27.292Z,61.17
2018-05-26T06:05:56.202Z,60.10
2018-05-26T06:08:24.998Z,58.78
2018-05-26T06:10:53.844Z,57.45
2018-05-26T06:13:22.681Z,56.07
2018-05-26T06:15:51.533Z,55.43
2018-05-26T06:18:20.383Z,53.68
2018-05-26T06:20:49.193Z,48.77
2018-05-26T06:23:18.045Z,44.54
2018-05-26T06:25:46.871Z,41.06
2018-05-26T06:28:15.708Z,38.67
2018-05-26T06:30:44.532Z,36.91
2018-05-26T06:33:13.364Z,35.56
2018-05-26T06:35:45.195Z,34.32
2018-05-26T06:38:14.011Z,33.10
2018-05-26T06:40:42.860Z,32.10
2018-05-26T06:43:11.685Z,30.86
2018-05-26T06:45:40.545Z,29.08
2018-05-26T06:48:09.379Z,29.13
2018-05-26T06:50:38.231Z,28.64
2018-05-26T06:53:07.069Z,28.53
2018-05-26T06:55:35.923Z,27.55
2018-05-26T06:58:04.805Z,28.10
2018-05-26T07:00:33.664Z,28.08
2018-05-26T07:03:02.475Z,27.55
2018-05-26T07:05:31.333Z,26.95
2018-05-26T07:08:00.178Z,25.94
2018-05-26T07:10:29.040Z,26.24
2018-05-26T07:12:57.910Z,25.46
2018-05-26T07:15:26.746Z,25.81
2018-05-26T07:17:55.588Z,25.82
2018-05-26T07:20:24.452Z,25.96
2018-05-26T07:22:53.293Z,24.22
2018-05-26T07:25:22.143Z,24.54
2018-05-26T07:27:51.039Z,25.12
2018-05-26T07:30:19.820Z,24.01
2018-05-26T07:32:48.658Z,23.66
2018-05-26T07:35:17.502Z,23.34
2018-05-26T07:37:46.342Z,23.89
2018-05-26T07:40:15.225Z,23.46
2018-05-26T07:42:44.086Z,22.54
2018-05-26T07:45:12.933Z,23.18
2018-05-26T07:47:41.782Z,23.02
2018-05-26T07:50:10.626Z,23.30
2018-05-26T07:52:39.473Z,22.40
2018-05-26T07:55:08.346Z,22.79
2018-05-26T07:57:37.218Z,22.76
2018-05-26T08:00:06.107Z,22.53
2018-05-26T08:02:34.902Z,23.53
2018-05-26T08:05:03.760Z,23.67
2018-05-26T08:07:32.596Z,23.15
2018-05-26T08:10:01.439Z,22.71
2018-05-26T08:12:30.283Z,22.63
2018-05-26T08:14:59.129Z,23.83
2018-05-26T08:17:27.989Z,22.88
2018-05-26T08:19:56.793Z,22.01
2018-05-26T08:22:25.650Z,22.86
2018-05-26T08:24:54.496Z,21.86
2018-05-26T08:27:23.346Z,20.68
2018-05-26T08:29:52.194Z,22.14
2018-05-26T08:32:21.046Z,21.43
2018-05-26T08:34:49.890Z,21.63
2018-05-26T08:37:18.727Z,21.26
2018-05-26T08:39:47.563Z,21.93
2018-05-26T08:42:16.394Z,21.79
2018-05-26T08:44:45.271Z,21.22
2018-05-26T08:47:14.109Z,20.96
2018-05-26T08:49:42.936Z,20.93
2018-05-26T08:52:11.802Z,20.33
2018-05-26T08:54:40.654Z,19.98
2018-05-26T08:57:09.478Z,20.66
2018-05-26T08:59:38.592Z,20.36
2018-05-26T09:02:07.444Z,19.71
2018-05-26T09:04:36.279Z,19.84
2018-05-26T09:07:05.152Z,20.72
2018-05-26T09:09:36.849Z,19.51
2018-05-26T09:12:05.683Z,19.90
2018-05-26T09:14:34.498Z,20.00
2018-05-26T09:17:03.379Z,19.24
2018-05-26T09:19:32.223Z,19.39
2018-05-26T09:22:01.096Z,19.65
2018-05-26T09:24:29.901Z,19.72
2018-05-26T09:26:58.717Z,19.38
2018-05-26T09:29:27.571Z,19.22
2018-05-26T09:31:56.417Z,19.69
2018-05-26T09:34:25.260Z,20.54
2018-05-26T09:36:54.090Z,20.27
2018-05-26T09:39:23.257Z,19.95
2018-05-26T09:41:52.630Z,20.34
2018-05-26T09:44:22.209Z,20.34
2018-05-26T09:46:53.717Z,19.73
2018-05-26T09:49:25.578Z,19.68
2018-05-26T09:51:54.732Z,20.49
2018-05-26T09:54:23.870Z,19.77
2018-05-26T09:56:52.920Z,18.43
2018-05-26T09:59:22.203Z,19.41
2018-05-26T10:01:53.745Z,20.04
2018-05-26T10:04:25.888Z,20.79
2018-05-26T10:06:55.094Z,21.08
2018-05-26T10:09:27.145Z,19.45
2018-05-26T10:11:56.731Z,19.85
2018-05-26T10:14:28.717Z,20.80
2018-05-26T10:16:55.499Z,19.76
2018-05-26T10:19:24.768Z,20.08
2018-05-26T10:21:56.172Z,20.08
2018-05-26T10:24:25.332Z,19.97
2018-05-26T10:26:57.677Z,19.39
2018-05-26T10:29:29.745Z,19.80
2018-05-26T10:31:59.244Z,20.10
2018-05-26T10:34:28.368Z,19.82
2018-05-26T10:36:57.853Z,19.30
2018-05-26T10:39:27.242Z,18.91
2018-05-26T10:41:56.349Z,19.80
2018-05-26T10:44:25.507Z,19.40
2018-05-26T10:46:54.585Z,18.81
2018-05-26T10:49:23.916Z,19.66
2018-05-26T10:51:55.269Z,18.77
2018-05-26T10:54:24.406Z,19.73
2018-05-26T10:56:56.034Z,18.24
2018-05-26T10:59:25.057Z,19.01
2018-05-26T11:01:54.539Z,18.19
2018-05-26T11:04:23.625Z,19.24
2018-05-26T11:06:54.447Z,19.15
2018-05-26T11:09:26.568Z,19.38
2018-05-26T11:11:56.172Z,19.55
2018-05-26T11:14:31.606Z,20.13
2018-05-26T11:17:00.949Z,18.47
2018-05-26T11:19:39.466Z,20.22
2018-05-26T11:22:09.013Z,20.05
2018-05-26T11:24:38.367Z,19.69
2018-05-26T11:27:07.386Z,19.81
2018-05-26T11:29:36.403Z,20.26
2018-05-26T11:32:08.133Z,20.30
2018-05-26T11:34:37.801Z,19.50
2018-05-26T11:37:06.988Z,18.86
2018-05-26T11:39:36.083Z,19.27
2018-05-26T11:42:05.100Z,19.76
2018-05-26T11:44:36.922Z,19.22
2018-05-26T11:47:05.994Z,20.30
2018-05-26T11:49:35.138Z,19.98
2018-05-26T11:52:06.916Z,20.00
2018-05-26T11:54:36.195Z,20.65
2018-05-26T11:57:05.208Z,20.54
2018-05-26T11:59:34.665Z,21.08
2018-05-26T12:02:05.812Z,20.50
2018-05-26T12:04:35.214Z,21.42
2018-05-26T12:07:06.816Z,21.77
2018-05-26T12:09:35.929Z,22.15
2018-05-26T12:12:04.991Z,22.28
2018-05-26T12:14:37.391Z,20.32
2018-05-26T12:17:06.430Z,20.31
2018-05-26T12:19:35.692Z,21.00
2018-05-26T12:22:05.415Z,19.40
2018-05-26T12:24:34.524Z,19.44
2018-05-26T12:27:03.668Z,20.00
2018-05-26T12:29:33.271Z,20.17
2018-05-26T12:32:02.523Z,20.26
2018-05-26T12:34:33.877Z,21.43
2018-05-26T12:37:02.981Z,21.02
2018-05-26T12:39:33.242Z,21.56
2018-05-26T12:42:05.688Z,22.71
2018-05-26T12:44:35.575Z,20.57
2018-05-26T12:47:05.064Z,21.75
2018-05-26T12:49:34.496Z,21.98
2018-05-26T12:52:03.651Z,22.09
2018-05-26T12:54:37.632Z,21.74
2018-05-26T12:57:09.441Z,22.08
2018-05-26T12:59:39.151Z,21.28
2018-05-26T13:02:08.243Z,20.85
2018-05-26T13:04:37.334Z,21.43
2018-05-26T13:07:06.917Z,21.77
2018-05-26T13:09:36.490Z,21.40
2018-05-26T13:12:06.345Z,21.25
2018-05-26T13:14:36.226Z,21.68
2018-05-26T13:17:05.529Z,20.69
2018-05-26T13:19:34.757Z,21.48
2018-05-26T13:22:05.997Z,22.62
2018-05-26T13:24:35.196Z,22.46
2018-05-26T13:27:04.514Z,22.27
2018-05-26T13:29:33.817Z,21.19
2018-05-26T13:32:04.804Z,21.57
2018-05-26T13:34:34.370Z,21.48
2018-05-26T13:37:03.458Z,21.65
2018-05-26T13:39:32.560Z,21.72
2018-05-26T13:42:39.626Z,22.31
2018-05-26T13:45:11.295Z,22.04
2018-05-26T13:47:42.999Z,21.68
2018-05-26T13:50:12.230Z,22.44
2018-05-26T13:52:41.659Z,22.55
2018-05-26T13:55:10.700Z,23.10
2018-05-26T13:57:39.981Z,22.68
2018-05-26T14:00:11.787Z,22.96
2018-05-26T14:02:42.248Z,23.99
2018-05-26T14:05:11.413Z,23.83
2018-05-26T14:07:40.529Z,23.56
2018-05-26T14:10:09.693Z,22.40
2018-05-26T14:12:41.248Z,22.85
2018-05-26T14:15:12.698Z,24.08
2018-05-26T14:17:42.228Z,22.71
2018-05-26T14:20:11.308Z,23.26
2018-05-26T14:22:40.372Z,24.23
2018-05-26T14:25:11.928Z,23.92
2018-05-26T14:27:41.589Z,23.01
2018-05-26T14:30:20.576Z,23.32
2018-05-26T14:32:50.129Z,24.81
2018-05-26T14:35:19.510Z,23.20
2018-05-26T14:37:48.738Z,23.93
2018-05-26T14:40:21.268Z,24.23
2018-05-26T14:42:53.001Z,23.73
2018-05-26T14:45:21.990Z,23.83
2018-05-26T14:47:51.224Z,23.75
2018-05-26T14:50:20.302Z,23.55
2018-05-26T14:52:50.144Z,24.32
2018-05-26T14:55:19.396Z,24.30
2018-05-26T14:57:48.772Z,24.57
2018-05-26T15:00:17.869Z,24.89
2018-05-26T15:02:46.928Z,23.84
2018-05-26T15:05:16.103Z,23.65
2018-05-26T15:07:45.233Z,23.55
2018-05-26T15:10:14.305Z,23.80
2018-05-26T15:12:44.212Z,24.27
2018-05-26T15:15:18.318Z,24.50
2018-05-26T15:17:44.991Z,24.02
2018-05-26T15:20:14.054Z,23.99
2018-05-26T15:22:43.094Z,24.29
2018-05-26T15:25:12.230Z,24.92
2018-05-26T15:27:41.380Z,25.38
2018-05-26T15:30:10.743Z,24.83
2018-05-26T15:32:40.465Z,25.26
2018-05-26T15:35:09.751Z,24.94
2018-05-26T15:37:39.253Z,24.79
2018-05-26T15:40:08.437Z,25.04
2018-05-26T15:42:40.811Z,25.23
2018-05-26T15:45:09.709Z,26.24
2018-05-26T15:47:40.214Z,25.43
2018-05-26T15:50:09.563Z,26.05
2018-05-26T15:52:40.587Z,26.37
2018-05-26T15:55:09.605Z,25.96
2018-05-26T15:57:38.611Z,25.54
2018-05-26T16:00:07.729Z,25.76
2018-05-26T16:02:36.814Z,25.45
2018-05-26T16:05:06.619Z,25.77
2018-05-26T16:07:36.066Z,25.60
2018-05-26T16:10:05.260Z,26.42
2018-05-26T16:12:34.285Z,26.96
2018-05-26T16:15:03.394Z,26.07
2018-05-26T16:17:32.597Z,25.89
2018-05-26T16:20:02.089Z,25.39
2018-05-26T16:22:31.226Z,25.54
2018-05-26T16:25:00.333Z,25.56
2018-05-26T16:27:29.494Z,25.34
2018-05-26T16:29:58.761Z,25.68
2018-05-26T16:32:35.514Z,25.94
2018-05-26T16:35:04.632Z,24.19
2018-05-26T16:37:33.915Z,25.01
2018-05-26T16:40:03.278Z,25.18
2018-05-26T16:42:33.456Z,24.95
2018-05-26T16:45:09.212Z,24.85
2018-05-26T16:47:35.210Z,24.32
2018-05-26T16:50:07.533Z,25.28
2018-05-26T16:52:39.697Z,23.97
2018-05-26T16:55:11.278Z,25.05
2018-05-26T16:57:40.421Z,24.73
2018-05-26T17:00:09.494Z,25.22
2018-05-26T17:02:38.538Z,24.92
2018-05-26T17:05:08.508Z,24.79
2018-05-26T17:07:37.920Z,25.35
2018-05-26T17:10:07.032Z,25.05
2018-05-26T17:12:37.076Z,25.01
2018-05-26T17:15:09.312Z,25.41
2018-05-26T17:17:38.526Z,25.96
2018-05-26T17:20:08.197Z,25.42
2018-05-26T17:22:38.473Z,25.18
2018-05-26T17:25:09.564Z,25.73
2018-05-26T17:27:36.930Z,25.89
2018-05-26T17:30:08.045Z,25.55
2018-05-26T17:32:37.149Z,25.62
2018-05-26T17:35:09.216Z,25.55
2018-05-26T17:37:38.492Z,25.59
2018-05-26T17:40:07.407Z,25.81
2018-05-26T17:42:36.704Z,25.84
2018-05-26T17:45:05.916Z,26.47
2018-05-26T17:47:36.464Z,26.86
2018-05-26T17:50:05.683Z,25.96
2018-05-26T17:52:34.673Z,26.43
2018-05-26T17:55:03.992Z,27.58
2018-05-26T17:57:33.385Z,27.26
2018-05-26T18:00:02.264Z,27.57
2018-05-26T18:02:31.286Z,27.60
2018-05-26T18:05:00.356Z,27.71
2018-05-26T18:07:29.479Z,29.18
2018-05-26T18:09:58.784Z,28.66
2018-05-26T18:12:27.814Z,29.36
2018-05-26T18:14:56.931Z,28.54
2018-05-26T18:17:25.905Z,29.08
2018-05-26T18:19:55.312Z,29.22
2018-05-26T18:22:24.822Z,29.20
2018-05-26T18:24:56.959Z,29.82
2018-05-26T18:27:26.282Z,30.06
2018-05-26T18:29:55.423Z,30.31
2018-05-26T18:32:24.683Z,30.57
2018-05-26T18:35:31.674Z,30.28
2018-05-26T18:38:00.880Z,30.31
2018-05-26T18:40:30.823Z,31.46
2018-05-26T18:43:00.654Z,32.27
2018-05-26T18:45:29.794Z,32.41
2018-05-26T18:47:58.968Z,31.84
2018-05-26T18:50:28.100Z,32.12
2018-05-26T18:52:58.914Z,32.76
2018-05-26T18:55:28.678Z,32.79
2018-05-26T18:57:57.716Z,33.42
2018-05-26T19:00:26.863Z,34.10
2018-05-26T19:02:58.409Z,34.50
2018-05-26T19:05:27.564Z,34.67
2018-05-26T19:07:56.663Z,34.71
2018-05-26T19:10:25.688Z,35.38
2018-05-26T19:12:54.713Z,35.63
2018-05-26T19:15:23.813Z,35.78
2018-05-26T19:17:52.997Z,35.85
2018-05-26T19:20:22.791Z,35.71
2018-05-26T19:22:51.684Z,36.16
2018-05-26T19:25:23.227Z,37.24
2018-05-26T19:27:50.161Z,36.96
2018-05-26T19:30:19.265Z,37.17
2018-05-26T19:32:48.451Z,37.48
2018-05-26T19:35:18.675Z,37.96
2018-05-26T19:37:47.798Z,38.60
2018-05-26T19:40:16.853Z,39.13
2018-05-26T19:42:45.996Z,39.60
2018-05-26T19:45:15.105Z,39.72
2018-05-26T19:47:44.275Z,39.90
2018-05-26T19:50:13.356Z,39.98
2018-05-26T19:52:42.648Z,40.33
2018-05-26T19:55:11.767Z,40.77
2018-05-26T19:57:41.096Z,40.96
2018-05-26T20:00:10.569Z,41.03
2018-05-26T20:02:43.193Z,41.53
2018-05-26T20:05:13.535Z,41.50
2018-05-26T20:07:45.910Z,41.74
2018-05-26T20:10:13.339Z,41.13
2018-05-26T20:12:45.403Z,41.06
2018-05-26T20:15:14.493Z,41.32
2018-05-26T20:17:46.944Z,41.67
2018-05-26T20:20:13.560Z,41.69
2018-05-26T20:22:45.544Z,41.92
2018-05-26T20:25:14.658Z,42.36
2018-05-26T20:27:44.534Z,42.54
2018-05-26T20:30:13.603Z,42.65
2018-05-26T20:32:43.604Z,42.75
2018-05-26T20:35:12.441Z,42.59
2018-05-26T20:37:41.267Z,43.26
2018-05-26T20:40:10.106Z,42.70
2018-05-26T20:42:38.953Z,43.58
2018-05-26T20:45:07.841Z,43.69
2018-05-26T20:47:36.688Z,42.69
2018-05-26T20:50:05.595Z,43.13
2018-05-26T20:52:34.370Z,43.79
2018-05-26T20:55:03.200Z,41.94
2018-05-26T20:57:32.031Z,42.96
2018-05-26T21:00:00.885Z,43.66
2018-05-26T21:02:29.711Z,42.83
2018-05-26T21:04:58.548Z,43.08
2018-05-26T21:07:27.359Z,42.96
2018-05-26T21:09:56.200Z,42.86
2018-05-26T21:12:25.024Z,42.76
2018-05-26T21:14:53.864Z,43.16
2018-05-26T21:17:22.687Z,42.82
2018-05-26T21:19:51.539Z,42.59
2018-05-26T21:22:20.368Z,43.24
2018-05-26T21:24:49.322Z,43.53
2018-05-26T21:27:18.141Z,43.33
2018-05-26T21:29:46.999Z,43.28
2018-05-26T21:32:15.839Z,44.45
2018-05-26T21:34:44.673Z,43.33
2018-05-26T21:37:13.599Z,44.30
2018-05-26T21:39:42.401Z,44.41
2018-05-26T21:42:11.249Z,44.39
2018-05-26T21:44:40.069Z,44.10
2018-05-26T21:47:08.980Z,44.08
2018-05-26T21:49:37.780Z,44.50
2018-05-26T21:52:06.633Z,44.70
2018-05-26T21:54:35.445Z,44.94
2018-05-26T21:57:04.279Z,44.62
2018-05-26T21:59:33.109Z,44.59
2018-05-26T22:02:01.946Z,44.06
2018-05-26T22:04:30.785Z,44.00
2018-05-26T22:06:59.625Z,43.68
2018-05-26T22:09:28.466Z,43.62
2018-05-26T22:11:57.370Z,43.30
2018-05-26T22:14:26.316Z,42.91
2018-05-26T22:16:55.088Z,42.73
2018-05-26T22:19:23.920Z,42.76
2018-05-26T22:21:52.732Z,42.54
2018-05-26T22:24:21.584Z,42.43
2018-05-26T22:26:50.404Z,42.37
2018-05-26T22:29:19.246Z,42.58
2018-05-26T22:31:48.076Z,42.66
2018-05-26T22:34:16.903Z,42.56
2018-05-26T22:36:45.746Z,42.34
2018-05-26T22:39:14.598Z,42.23
2018-05-26T22:41:43.430Z,42.33
2018-05-26T22:44:12.293Z,42.45
2018-05-26T22:46:41.107Z,42.61
2018-05-26T22:49:09.983Z,42.98
2018-05-26T22:51:38.826Z,43.09
2018-05-26T22:54:07.677Z,43.17
2018-05-26T22:56:36.556Z,42.94
2018-05-26T22:59:05.445Z,43.12
2018-05-26T23:01:34.334Z,43.06
2018-05-26T23:04:03.189Z,43.17
2018-05-26T23:06:32.024Z,43.04
2018-05-26T23:09:00.869Z,43.29
2018-05-26T23:11:29.707Z,43.22
2018-05-26T23:13:58.543Z,43.33
2018-05-26T23:16:27.393Z,43.21
2018-05-26T23:18:56.215Z,43.31
2018-05-26T23:21:25.063Z,43.55
2018-05-26T23:23:53.916Z,43.74
2018-05-26T23:26:22.734Z,43.83
2018-05-26T23:28:51.566Z,43.98
2018-05-26T23:31:20.422Z,43.81
2018-05-26T23:33:49.277Z,44.46
2018-05-26T23:36:18.109Z,44.47
2018-05-26T23:38:46.954Z,44.03
2018-05-26T23:41:15.811Z,44.15
2018-05-26T23:43:44.653Z,44.08
2018-05-26T23:46:13.519Z,44.40
2018-05-26T23:48:42.339Z,44.58
2018-05-26T23:51:11.173Z,44.55
2018-05-26T23:53:40.023Z,45.34
2018-05-26T23:56:08.897Z,45.26
2018-05-26T23:58:37.738Z,44.88
